Current Conditions
Partly Cloudy
Conditions



Pressure
29.63 (inHG) - 1003.42 (mb)
Visibility

9.9 (miles) - 16.0 (km)
Temperature
64  °F
Temperature
61  °F
Dewpoint
88  %
 Humidity
Wind Speed
8  mph
7  kts
13  km/h
3.6  m/s
Wind Direction
N
45°
E
90°
135°
S
180°
225°
W
270°
315°
 280°

Due West
Airport Data
KMHT
Manchester-Boston Regional Airport
Metar :KMHT 300910Z 28007KT 10SM FEW021 18/16 A2963 RMK AO2 T01830161 $
Fri 30th July 04:10 am
Raw Metar Info
Raw METAR is the most common format in the world for the transmission of observational weather data. It is highly standardized through the International Civil Aviation Organization (ICAO), which allows it to be understood throughout most of the world.
API Info
Data Provided by
https://www.checkwx.com/weather/KMHT

Aviation Weather providing METAR, TAF, AIRMET, SIGMET and OUTLOOK Weather Reports
© Info
CSS/SVG/PHP scripts were developed by weather34.com for use in the weather34 template © 2015-2021

Guide Info provided by Metar-Wikipedia